Time;durP1;ratioP1;P1;durP2;ratioP2;P2;SDS_P1;SDS_P2;PMS_P1;PMS_P2;Temp;Humidity;BMP_temperature;BMP_pressure;BME280_temperature;BME280_humidity;BME280_pressure;Samples;Min_cycle;Max_cycle;Signal;HPM_P1;HPM_P2
2022/08/19 00:00:36;;;;;;;12.52;11.43;;;;;;;19.02;95.55;101328.16;5073844;28;20040;-35
2022/08/19 00:03:03;;;;;;;12.45;11.45;;;;;;;19.08;95.24;101329.81;5073892;28;20116;-35
2022/08/19 00:05:29;;;;;;;11.80;10.65;;;;;;;19.00;95.48;101330.38;5073628;28;20393;-36
2022/08/19 00:07:54;;;;;;;12.32;11.25;;;;;;;18.99;95.59;101331.47;5073724;28;20055;-36
2022/08/19 00:10:20;;;;;;;11.88;10.77;;;;;;;18.94;95.64;101337.78;5074358;28;20035;-35
2022/08/19 00:12:46;;;;;;;12.90;11.77;;;;;;;18.91;95.72;101327.34;5074474;28;20157;-36
2022/08/19 00:15:14;;;;;;;;;;;;;;;19.12;93.15;101327.31;5073723;28;20060;-35
2022/08/19 00:17:42;;;;;;;14.23;11.90;;;;;;;18.92;95.61;101336.38;5073531;28;19917;-35
2022/08/19 00:20:10;;;;;;;13.13;11.77;;;;;;;18.91;96.30;101334.75;5073582;28;20100;-36
2022/08/19 00:22:36;;;;;;;12.23;11.07;;;;;;;18.89;95.99;101331.47;5073443;28;20092;-35
2022/08/19 00:25:03;;;;;;;12.63;11.52;;;;;;;18.86;96.15;101334.75;5074369;28;20087;-35
2022/08/19 00:27:28;;;;;;;12.40;11.30;;;;;;;18.82;95.90;101331.72;5073465;28;20036;-35
2022/08/19 00:29:54;;;;;;;12.48;11.38;;;;;;;18.83;95.73;101338.03;5072165;28;20052;-35
2022/08/19 00:32:20;;;;;;;;;;;;;;;18.96;93.58;101337.50;5074543;28;20024;-35
2022/08/19 00:34:46;;;;;;;12.32;11.18;;;;;;;18.78;95.51;101334.19;5071912;28;19912;-35
2022/08/19 00:37:11;;;;;;;11.50;10.50;;;;;;;18.77;96.24;101329.00;5073297;28;20067;-35
2022/08/19 00:39:37;;;;;;;11.82;10.93;;;;;;;18.74;95.92;101335.84;5073791;28;20059;-35
2022/08/19 00:42:02;;;;;;;;;;;;;;;18.92;93.67;101333.66;5073662;28;20048;-35
2022/08/19 00:44:30;;;;;;;12.20;10.93;;;;;;;18.68;95.68;101331.44;5073287;28;19908;-35
2022/08/19 00:46:58;;;;;;;12.52;11.25;;;;;;;18.71;95.96;101336.41;5073208;28;20049;-35
2022/08/19 00:49:27;;;;;;;12.18;11.18;;;;;;;18.65;96.38;101333.91;5072107;28;20021;-35
2022/08/19 00:51:57;;;;;;;13.88;12.65;;;;;;;18.69;96.73;101333.13;5073345;28;20039;-35
2022/08/19 00:54:23;;;;;;;14.65;13.15;;;;;;;18.68;97.05;101334.19;5072726;28;20036;-35
2022/08/19 00:56:49;;;;;;;14.88;13.48;;;;;;;18.74;96.66;101330.38;5072851;28;20021;-35
2022/08/19 00:59:17;;;;;;;15.88;14.48;;;;;;;18.67;97.06;101323.47;5073501;28;20032;-35
2022/08/19 01:01:44;;;;;;;16.08;14.60;;;;;;;18.68;97.21;101327.84;5073206;28;20028;-35
2022/08/19 01:04:09;;;;;;;15.57;13.98;;;;;;;18.66;97.20;101332.81;5072709;28;20036;-36
2022/08/19 01:06:40;;;;;;;15.77;14.38;;;;;;;18.60;97.78;101323.75;5073730;28;20487;-35
2022/08/19 01:09:06;;;;;;;16.00;14.50;;;;;;;18.56;96.98;101321.84;5073606;28;20035;-35
2022/08/19 01:11:33;;;;;;;;;;;;;;;18.75;94.96;101326.53;5073378;28;20025;-35
2022/08/19 01:13:59;;;;;;;16.48;14.88;;;;;;;18.60;96.58;101331.97;5072498;28;19931;-35
2022/08/19 01:16:28;;;;;;;16.45;14.95;;;;;;;18.58;97.07;101336.06;5073572;28;20036;-35
2022/08/19 01:18:54;;;;;;;15.70;14.20;;;;;;;18.55;96.93;101342.94;5072764;28;20120;-35
2022/08/19 01:21:47;;;;;;;15.77;14.27;;;;;;;18.49;97.52;101335.78;5073632;28;20082;-35
2022/08/19 01:24:12;;;;;;;14.27;13.02;;;;;;;18.48;96.66;101342.38;5072608;28;20102;-35
2022/08/19 01:26:41;;;;;;;14.98;13.45;;;;;;;18.45;97.10;101335.53;5072817;28;20452;-35
2022/08/19 01:29:07;;;;;;;14.85;13.55;;;;;;;18.38;97.89;101336.88;5073452;28;20346;-35
2022/08/19 01:31:33;;;;;;;15.43;13.93;;;;;;;18.43;97.56;101334.13;5072676;28;20433;-35
2022/08/19 01:33:59;;;;;;;;;;;;;;;18.61;95.30;101335.53;5073693;28;20189;-35
2022/08/19 01:36:41;;;;;;;17.67;14.85;;;;;;;18.38;97.35;101342.34;5071546;28;19916;-35
2022/08/19 01:39:11;;;;;;;15.60;14.23;;;;;;;18.28;97.76;101341.22;5073000;28;20036;-35
2022/08/19 01:41:37;;;;;;;17.48;15.82;;;;;;;18.19;97.46;101325.59;5073090;28;20052;-35
2022/08/19 01:44:03;;;;;;;16.35;14.95;;;;;;;18.25;97.89;101338.19;5071039;28;20132;-35
2022/08/19 01:46:30;;;;;;;16.80;15.30;;;;;;;18.30;97.48;101337.38;5072724;28;20377;-35
2022/08/19 01:48:55;;;;;;;17.38;15.77;;;;;;;18.26;98.17;101337.13;5076421;28;20033;-35
2022/08/19 01:51:21;;;;;;;16.77;15.15;;;;;;;18.24;97.65;101322.88;5076339;28;20381;-35
2022/08/19 01:53:50;;;;;;;;;;;;;;;18.45;95.99;101331.97;5077147;28;20052;-35
2022/08/19 01:56:16;;;;;;;17.48;15.70;;;;;;;18.29;97.55;101333.84;5076367;28;20364;-36
2022/08/19 01:58:52;;;;;;;17.75;16.15;;;;;;;18.27;98.18;101328.63;5075880;28;20024;-36
2022/08/19 02:01:19;;;;;;;18.70;16.80;;;;;;;18.23;98.06;101327.53;5076435;28;20051;-35
2022/08/19 02:03:45;;;;;;;17.80;16.20;;;;;;;18.18;97.39;101327.53;5075977;28;20021;-35
2022/08/19 02:06:11;;;;;;;17.60;16.00;;;;;;;18.13;97.67;101338.47;5076347;28;20025;-35
2022/08/19 02:08:37;;;;;;;;;;;;;;;18.33;96.14;101334.94;5076637;28;20028;-35
2022/08/19 02:11:04;;;;;;;18.67;16.77;;;;;;;18.04;97.52;101320.91;5076083;28;19912;-35
2022/08/19 02:13:31;;;;;;;18.73;16.83;;;;;;;18.08;97.93;101338.44;5075686;28;20549;-35
2022/08/19 02:15:57;;;;;;;18.67;16.88;;;;;;;18.01;98.20;101341.44;5075876;28;20115;-35
2022/08/19 02:18:23;;;;;;;18.50;16.77;;;;;;;18.04;98.56;101352.94;5075549;28;20400;-35
2022/08/19 02:20:48;;;;;;;19.33;17.45;;;;;;;17.96;98.73;101343.34;5075821;28;20028;-35
2022/08/19 02:23:15;;;;;;;18.70;16.92;;;;;;;17.96;97.69;101352.38;5076050;28;20028;-36
2022/08/19 02:25:41;;;;;;;19.70;17.75;;;;;;;17.92;98.33;101355.91;5076311;28;20036;-35
2022/08/19 02:28:07;;;;;;;20.52;18.52;;;;;;;17.92;99.27;101344.97;5075393;28;20095;-35
2022/08/19 02:30:32;;;;;;;;;;;;;;;18.08;97.22;101354.03;5076401;28;20098;-36
2022/08/19 02:32:58;;;;;;;19.52;17.52;;;;;;;17.93;99.57;101352.06;5075581;28;19909;-35
2022/08/19 02:35:24;;;;;;;20.58;18.73;;;;;;;17.87;99.75;101355.88;5075765;28;20028;-35
2022/08/19 02:40:34;;;;;;;19.40;17.50;;;;;;;17.82;99.65;101364.91;5075979;28;20441;-35
2022/08/19 02:43:04;;;;;;;19.70;17.85;;;;;;;17.77;99.37;101367.59;5075145;28;20032;-35
2022/08/19 02:45:34;;;;;;;18.85;17.08;;;;;;;17.79;99.63;101359.13;5075849;28;20060;-36
2022/08/19 02:48:00;;;;;;;19.45;17.60;;;;;;;17.77;99.47;101353.94;5075093;28;20033;-35
2022/08/19 02:50:25;;;;;;;;;;;;;;;17.94;97.35;101370.94;5076019;28;20024;-35
2022/08/19 02:52:51;;;;;;;18.60;16.80;;;;;;;17.74;98.76;101370.88;5074964;28;19912;-35
2022/08/19 02:55:16;;;;;;;;;;;;;;;17.88;97.20;101369.28;5074291;28;20376;-35
2022/08/19 02:57:41;;;;;;;18.90;17.00;;;;;;;17.71;99.58;101374.94;5074968;28;19916;-35
2022/08/19 03:00:08;;;;;;;;;;;;;;;17.86;97.34;101367.91;5075287;28;20473;-35
2022/08/19 03:02:33;;;;;;;18.60;16.90;;;;;;;17.70;99.12;101378.75;5075070;28;19919;-35
2022/08/19 03:04:59;;;;;;;;;;;;;;;17.84;97.20;101373.66;5076033;28;20036;-35
2022/08/19 03:07:24;;;;;;;18.57;16.67;;;;;;;17.65;99.56;101367.78;5075524;28;20007;-35
2022/08/19 03:09:49;;;;;;;20.05;18.08;;;;;;;17.55;100.00;101362.25;5074912;28;20120;-35
2022/08/19 03:12:14;;;;;;;;;;;;;;;17.74;97.98;101357.19;5073874;28;20040;-35
2022/08/19 03:14:40;;;;;;;18.43;16.67;;;;;;;17.51;99.50;101345.53;5075071;28;19923;-35
2022/08/19 03:17:05;;;;;;;;;;;;;;;17.71;97.47;101358.53;5075980;28;20270;-36
2022/08/19 03:19:34;;;;;;;19.85;17.95;;;;;;;17.57;99.88;101361.97;5074591;28;19908;-35
2022/08/19 03:22:00;;;;;;;18.48;16.67;;;;;;;17.55;100.00;101373.19;5075441;28;20028;-35
2022/08/19 03:24:25;;;;;;;19.55;17.38;;;;;;;17.50;100.00;101373.16;5074810;28;20380;-35
2022/08/19 03:26:57;;;;;;;20.38;18.48;;;;;;;17.53;100.00;101375.38;5074585;28;20040;-35
2022/08/19 03:29:23;;;;;;;20.60;18.40;;;;;;;17.43;100.00;101364.38;5074687;28;20024;-35
2022/08/19 03:31:50;;;;;;;19.45;17.52;;;;;;;17.40;100.00;101365.72;5074630;28;20028;-35
2022/08/19 03:34:28;;;;;;;19.38;17.33;;;;;;;17.40;100.00;101360.25;5074151;28;20024;-35
2022/08/19 03:36:55;;;;;;;19.65;17.73;;;;;;;17.35;100.00;101356.66;5074526;28;20017;-35
2022/08/19 03:39:22;;;;;;;19.33;17.17;;;;;;;17.33;100.00;101358.84;5074442;28;20039;-35
2022/08/19 03:41:52;;;;;;;18.52;16.63;;;;;;;17.29;100.00;101365.94;5073620;28;20033;-35
2022/08/19 03:44:21;;;;;;;19.45;17.45;;;;;;;17.31;100.00;101361.84;5073922;28;20464;-35
2022/08/19 03:46:50;;;;;;;18.45;16.73;;;;;;;17.33;100.00;101361.59;5074155;28;20028;-35
2022/08/19 03:49:16;;;;;;;19.30;17.60;;;;;;;17.31;100.00;101355.53;5074701;28;20380;-35
2022/08/19 03:51:43;;;;;;;19.30;17.40;;;;;;;17.32;100.00;101351.72;5072940;28;20119;-35
2022/08/19 03:54:12;;;;;;;19.00;17.17;;;;;;;17.30;100.00;101346.53;5073831;28;20031;-36
2022/08/19 03:56:39;;;;;;;19.17;17.27;;;;;;;17.27;100.00;101348.94;5074870;28;20028;-35
2022/08/19 03:59:06;;;;;;;18.70;17.00;;;;;;;17.23;100.00;101349.50;5073420;28;20040;-35
2022/08/19 04:01:32;;;;;;;19.10;17.30;;;;;;;17.24;100.00;101334.75;5073748;28;20111;-35
2022/08/19 04:03:59;;;;;;;20.30;18.40;;;;;;;17.21;100.00;101343.44;5073460;28;20103;-35
2022/08/19 04:06:30;;;;;;;19.25;17.25;;;;;;;17.22;100.00;101352.47;5073940;28;20362;-35
2022/08/19 04:08:58;;;;;;;20.17;18.17;;;;;;;17.16;100.00;101354.34;5072660;28;20413;-35
2022/08/19 04:11:26;;;;;;;20.42;18.55;;;;;;;17.09;100.00;101358.41;5073715;28;20028;-35
2022/08/19 04:13:53;;;;;;;19.38;17.60;;;;;;;17.14;100.00;101352.97;5073496;28;20048;-35
2022/08/19 04:16:20;;;;;;;21.60;19.55;;;;;;;17.05;100.00;101336.25;5074027;28;20131;-35
2022/08/19 04:18:47;;;;;;;19.30;17.60;;;;;;;17.04;100.00;101344.72;5073753;28;20024;-35
2022/08/19 04:21:22;;;;;;;20.52;18.40;;;;;;;17.10;100.00;101355.41;5073459;28;20040;-35
2022/08/19 04:23:48;;;;;;;20.45;18.42;;;;;;;17.09;100.00;101355.69;5073076;28;20488;-35
2022/08/19 04:26:19;;;;;;;19.52;17.73;;;;;;;16.95;100.00;101337.00;5073949;28;20111;-35
2022/08/19 04:28:45;;;;;;;19.23;17.27;;;;;;;17.09;100.00;101356.50;5073523;28;20373;-35
2022/08/19 04:31:25;;;;;;;18.58;16.73;;;;;;;17.07;100.00;101347.72;5073282;28;20031;-35
2022/08/19 04:33:53;;;;;;;19.05;17.17;;;;;;;17.05;100.00;101349.91;5072921;28;20047;-35
2022/08/19 04:36:22;;;;;;;19.88;17.98;;;;;;;16.94;100.00;101353.66;5073172;28;20461;-35
2022/08/19 04:38:48;;;;;;;19.30;17.48;;;;;;;16.97;100.00;101342.19;5071826;28;20054;-35
2022/08/19 04:43:58;;;;;;;19.15;17.25;;;;;;;16.90;100.00;101344.31;5073427;28;20110;-35
2022/08/19 04:46:24;;;;;;;17.92;16.13;;;;;;;16.90;100.00;101344.31;5073348;28;20468;-35
2022/08/19 04:48:49;;;;;;;;;;;;;;;17.07;99.76;101352.38;5073790;28;20357;-35
2022/08/19 04:51:15;;;;;;;18.88;17.17;;;;;;;16.90;100.00;101355.25;5074193;28;19908;-35
2022/08/19 04:53:41;;;;;;;;;;;;;;;17.06;99.77;101354.28;5073374;28;20483;-35
2022/08/19 04:56:12;;;;;;;18.88;17.08;;;;;;;16.89;100.00;101367.28;5072834;28;19997;-35
2022/08/19 04:58:41;;;;;;;21.13;19.02;;;;;;;16.87;100.00;101366.69;5073270;28;20135;-35
2022/08/19 05:01:08;;;;;;;19.70;17.65;;;;;;;16.79;100.00;101361.69;5072954;28;20036;-35
2022/08/19 05:03:34;;;;;;;18.67;16.88;;;;;;;16.89;100.00;101362.63;5073028;28;20451;-35
2022/08/19 05:06:07;;;;;;;;;;;;;;;17.00;99.93;101369.00;5073550;28;20036;-35
2022/08/19 05:08:34;;;;;;;19.73;17.92;;;;;;;16.90;100.00;101366.19;5072762;28;19908;-35
2022/08/19 05:10:59;;;;;;;18.00;16.20;;;;;;;16.95;100.00;101369.78;5072803;28;20028;-35
2022/08/19 05:13:25;;;;;;;;;;;;;;;17.07;99.86;101366.03;5073544;28;20056;-35
2022/08/19 05:15:57;;;;;;;19.90;18.00;;;;;;;16.96;100.00;101373.31;5072662;28;19912;-35
2022/08/19 05:23:59;;;;;;;26.63;23.85;;;;;;;17.05;100.00;101379.97;5076597;28;20071;-35
2022/08/19 05:26:28;;;;;;;;;;;;;;;17.20;100.00;101391.00;5076974;28;20025;-35
2022/08/19 05:28:54;;;;;;;29.23;26.23;;;;;;;17.24;100.00;101400.34;5076338;28;19931;-35
2022/08/19 05:31:21;;;;;;;31.13;27.75;;;;;;;17.25;100.00;101390.22;5076610;28;20037;-35
2022/08/19 05:33:47;;;;;;;32.65;29.08;;;;;;;17.35;100.00;101395.75;5076600;28;20120;-35
2022/08/19 05:36:13;;;;;;;30.77;27.58;;;;;;;17.30;100.00;101389.44;5076526;28;20020;-35
2022/08/19 05:38:38;;;;;;;32.95;28.65;;;;;;;17.31;100.00;101407.47;5076725;28;20095;-35
2022/08/19 05:41:12;;;;;;;34.38;29.77;;;;;;;17.34;100.00;101410.53;5075715;28;20040;-36
2022/08/19 05:43:37;;;;;;;32.83;29.45;;;;;;;17.32;100.00;101412.66;5076506;28;20488;-36
2022/08/19 05:46:05;;;;;;;33.08;29.52;;;;;;;17.35;100.00;101403.97;5076855;28;20025;-35
2022/08/19 05:48:31;;;;;;;33.95;30.35;;;;;;;17.32;100.00;101401.75;5077299;28;20035;-35
2022/08/19 05:50:56;;;;;;;34.97;31.27;;;;;;;17.32;100.00;101399.00;5076487;28;20036;-35
2022/08/19 05:53:22;;;;;;;;;;;;;;;17.63;99.18;101418.38;5077817;28;20033;-35
2022/08/19 05:55:47;;;;;;;32.92;29.42;;;;;;;17.61;99.40;101412.31;5076664;28;19977;-35
2022/08/19 05:58:12;;;;;;;;;;;;;;;17.76;98.61;101412.44;5076793;28;20024;-38
2022/08/19 06:00:38;;;;;;;36.80;32.78;;;;;;;17.66;98.78;101410.44;5077045;28;19915;-36
2022/08/19 06:03:03;;;;;;;;;;;;;;;17.84;98.33;101406.47;5077247;28;20025;-37
2022/08/19 06:05:32;;;;;;;38.42;32.22;;;;;;;17.80;98.83;101396.31;5076622;28;20336;-35
2022/08/19 06:08:00;;;;;;;41.08;33.85;;;;;;;17.83;98.70;101402.09;5075951;28;20028;-35
2022/08/19 06:10:27;;;;;;;39.45;32.92;;;;;;;17.87;98.48;101397.75;5076024;28;20046;-36
2022/08/19 06:12:53;;;;;;;35.78;31.92;;;;;;;17.91;98.08;101398.00;5075856;28;20046;-35
2022/08/19 06:15:18;;;;;;;39.67;33.42;;;;;;;17.96;97.70;101398.06;5076155;28;20035;-35
2022/08/19 06:17:46;;;;;;;38.92;33.70;;;;;;;18.01;98.11;101395.34;5075549;28;20495;-34
2022/08/19 06:20:14;;;;;;;37.85;33.28;;;;;;;17.96;98.21;101385.22;5075757;28;20020;-35
2022/08/19 06:22:45;;;;;;;40.50;33.72;;;;;;;18.04;97.82;101389.31;5075529;28;20097;-35
2022/08/19 06:25:13;;;;;;;38.00;31.95;;;;;;;18.10;97.84;101390.16;5075740;28;20063;-35
2022/08/19 06:27:40;;;;;;;36.22;32.33;;;;;;;18.11;97.56;101392.66;5075613;28;20035;-35
2022/08/19 06:30:06;;;;;;;36.25;31.65;;;;;;;18.11;97.79;101380.88;5075574;28;20384;-34
2022/08/19 06:32:31;;;;;;;36.60;32.60;;;;;;;18.15;97.84;101388.25;5074946;28;20029;-35
2022/08/19 06:34:56;;;;;;;;;;;;;;;18.31;97.03;101391.91;5076534;28;20508;-35
2022/08/19 06:37:22;;;;;;;36.30;30.00;;;;;;;18.21;97.98;101387.22;5075565;28;20352;-35
2022/08/19 06:39:48;;;;;;;;;;;;;;;18.36;97.13;101393.81;5076005;28;20788;-35
2022/08/19 06:42:16;;;;;;;35.47;30.83;;;;;;;18.23;97.59;101381.47;5075418;28;20006;-35
2022/08/19 06:44:43;;;;;;;37.78;31.60;;;;;;;18.33;97.66;101386.13;5075419;28;20492;-35
2022/08/19 06:47:11;;;;;;;39.35;31.42;;;;;;;18.45;97.92;101397.69;5076176;28;20024;-35
2022/08/19 06:49:37;;;;;;;37.65;32.20;;;;;;;18.48;97.06;101392.47;5075415;28;20056;-36
2022/08/19 06:52:03;;;;;;;35.25;31.08;;;;;;;18.55;96.43;101392.22;5075363;28;20036;-36
2022/08/19 06:54:29;;;;;;;38.25;31.88;;;;;;;18.56;96.80;101393.88;5076101;28;20028;-34
2022/08/19 06:56:56;;;;;;;35.70;30.77;;;;;;;18.63;96.82;101396.34;5075833;28;20032;-35
2022/08/19 06:59:27;;;;;;;37.50;31.77;;;;;;;18.60;96.99;101384.03;5075065;28;20028;-35
2022/08/19 07:01:54;;;;;;;38.20;32.00;;;;;;;18.70;96.41;101400.50;5075617;28;20033;-35
2022/08/19 07:04:23;;;;;;;35.75;31.65;;;;;;;18.77;96.03;101405.72;5074988;28;20377;-35
2022/08/19 07:06:49;;;;;;;41.00;34.25;;;;;;;18.78;96.33;101402.69;5074001;28;20377;-35
2022/08/19 07:09:17;;;;;;;35.38;31.45;;;;;;;18.86;96.43;101401.34;5074800;28;20473;-35
2022/08/19 07:11:49;;;;;;;41.13;32.75;;;;;;;18.87;96.12;101391.19;5074639;28;20043;-35
2022/08/19 07:14:17;;;;;;;38.33;32.22;;;;;;;18.97;96.03;101399.41;5074984;28;20106;-35
2022/08/19 07:16:45;;;;;;;43.65;34.95;;;;;;;18.98;95.39;101401.06;5075347;28;20438;-35
2022/08/19 07:19:11;;;;;;;46.70;35.55;;;;;;;18.97;95.45;101407.63;5074440;28;20025;-35
2022/08/19 07:21:37;;;;;;;;;;;;;;;19.18;94.91;101417.53;5076049;28;20103;-35
2022/08/19 07:24:02;;;;;;;43.15;34.05;;;;;;;19.11;94.72;101419.69;5074729;28;19993;-35
2022/08/19 07:26:30;;;;;;;44.88;36.88;;;;;;;19.02;94.74;101422.16;5075092;28;20056;-35
2022/08/19 07:28:57;;;;;;;47.28;35.17;;;;;;;19.07;95.48;101420.53;5074206;28;20115;-35
2022/08/19 07:31:24;;;;;;;45.45;36.67;;;;;;;18.95;95.11;101410.66;5074784;28;20032;-35
2022/08/19 07:33:51;;;;;;;40.17;34.10;;;;;;;19.03;94.57;101421.09;5074351;28;20024;-35
2022/08/19 07:36:20;;;;;;;40.63;32.80;;;;;;;19.11;94.69;101411.47;5074297;28;20024;-35
2022/08/19 07:38:48;;;;;;;41.05;31.70;;;;;;;19.13;94.52;101417.53;5074004;28;20465;-35
2022/08/19 07:41:20;;;;;;;42.13;33.63;;;;;;;19.15;94.46;101418.06;5075160;28;20068;-35
2022/08/19 07:43:47;;;;;;;41.20;33.33;;;;;;;19.12;94.49;101413.13;5073779;28;20389;-34
2022/08/19 07:46:13;;;;;;;43.25;34.35;;;;;;;19.20;94.47;101418.06;5074286;28;20028;-35
2022/08/19 07:48:41;;;;;;;33.00;28.67;;;;;;;19.18;94.84;101417.53;5074361;28;20058;-35
2022/08/19 07:51:08;;;;;;;37.30;27.90;;;;;;;19.25;93.91;101423.53;5074148;28;20028;-34
2022/08/19 07:53:34;;;;;;;41.80;33.30;;;;;;;19.19;94.42;101424.66;5074019;28;20441;-35
2022/08/19 07:56:02;;;;;;;40.90;30.90;;;;;;;19.19;94.79;101423.81;5073827;28;20025;-35
2022/08/19 07:58:28;;;;;;;36.50;29.98;;;;;;;19.27;94.88;101431.47;5074090;28;20081;-35
2022/08/19 08:00:53;;;;;;;;;;;;;;;19.46;94.46;101445.47;5074375;28;20524;-35
2022/08/19 08:09:10;;;;;;;41.97;32.20;;;;;;;19.32;94.67;101444.38;5074002;28;19912;-35
2022/08/19 08:11:35;;;;;;;43.42;32.55;;;;;;;19.34;95.16;101443.00;5074183;28;20090;-35
2022/08/19 08:14:00;;;;;;;;;;;;;;;19.44;94.66;101447.66;5074571;28;20044;-35
2022/08/19 08:16:29;;;;;;;38.10;30.13;;;;;;;19.35;95.41;101441.91;5073695;28;19912;-35
2022/08/19 08:18:55;;;;;;;40.47;31.15;;;;;;;19.42;95.33;101456.19;5073533;28;20060;-35
2022/08/19 08:21:20;;;;;;;;;;;;;;;19.55;94.65;101454.78;5074218;28;20180;-35
2022/08/19 08:23:45;;;;;;;39.10;32.03;;;;;;;19.47;94.32;101447.94;5073427;28;19912;-35
2022/08/19 08:26:12;;;;;;;43.03;31.48;;;;;;;19.54;94.79;101453.13;5073796;28;20033;-34
2022/08/19 08:28:38;;;;;;;36.60;30.45;;;;;;;19.56;94.17;101456.41;5073974;28;20040;-34
2022/08/19 08:31:04;;;;;;;;;;;;;;;19.69;93.98;101464.13;5074363;28;20029;-34
2022/08/19 08:33:30;;;;;;;35.13;28.50;;;;;;;19.60;93.90;101462.22;5072968;28;19924;-34
2022/08/19 08:35:55;;;;;;;39.53;30.80;;;;;;;19.60;94.67;101473.19;5073464;28;20385;-34
2022/08/19 08:38:21;;;;;;;38.55;30.05;;;;;;;19.58;94.23;101481.66;5072977;28;20032;-34
2022/08/19 08:40:50;;;;;;;34.60;28.55;;;;;;;19.66;94.01;101472.88;5073598;28;20039;-34
2022/08/19 08:43:26;;;;;;;35.25;27.90;;;;;;;19.73;93.61;101473.44;5073391;28;20024;-35
2022/08/19 08:46:17;;;;;;;33.72;27.95;;;;;;;19.76;94.07;101478.38;5073232;28;20498;-35
2022/08/19 08:48:53;;;;;;;31.52;26.88;;;;;;;19.73;93.57;101478.13;5073593;28;20025;-35
2022/08/19 08:51:47;;;;;;;34.65;27.73;;;;;;;19.74;93.49;101491.53;5073726;28;20102;-35
2022/08/19 08:54:17;;;;;;;33.97;28.70;;;;;;;19.70;93.81;101493.19;5073890;28;20364;-35
2022/08/19 08:56:44;;;;;;;30.48;26.98;;;;;;;19.84;93.28;101478.91;5073398;28;20040;-35
2022/08/19 08:59:19;;;;;;;33.22;28.58;;;;;;;19.88;93.60;101477.25;5073899;28;20112;-36
2022/08/19 09:01:44;;;;;;;30.65;27.13;;;;;;;19.97;92.01;101478.34;5073327;28;20039;-35
2022/08/19 09:04:12;;;;;;;33.53;28.92;;;;;;;20.01;91.67;101484.91;5072988;28;20112;-35
2022/08/19 09:06:50;;;;;;;35.50;29.40;;;;;;;20.01;92.47;101466.53;5073332;28;20376;-36
2022/08/19 09:09:40;;;;;;;32.45;28.67;;;;;;;20.14;92.48;101473.31;5073205;28;20020;-35
2022/08/19 09:12:21;;;;;;;34.08;28.65;;;;;;;20.29;91.54;101475.19;5072970;28;20024;-36
2022/08/19 09:14:57;;;;;;;29.42;26.33;;;;;;;20.36;90.82;101461.19;5073037;28;20059;-35
2022/08/19 09:17:27;;;;;;;;;;;;;;;20.54;90.82;101471.53;5073719;28;20024;-35
2022/08/19 09:20:01;;;;;;;33.15;29.52;;;;;;;20.38;90.64;101472.69;5072500;28;19908;-35
2022/08/19 09:22:26;;;;;;;37.35;31.17;;;;;;;20.29;91.00;101456.78;5073565;28;20090;-35
2022/08/19 09:24:53;;;;;;;35.50;31.17;;;;;;;20.30;90.96;101477.69;5073000;28;20028;-33
2022/08/19 09:27:23;;;;;;;34.47;30.67;;;;;;;20.22;91.19;101471.94;5072991;28;20029;-34
2022/08/19 09:29:49;;;;;;;35.85;32.13;;;;;;;20.17;90.36;101481.03;5072620;28;20469;-34
2022/08/19 09:32:15;;;;;;;36.38;31.40;;;;;;;20.14;90.80;101487.06;5072681;28;20101;-35
2022/08/19 09:34:41;;;;;;;38.13;32.63;;;;;;;20.09;90.63;101492.56;5072432;28;20036;-36
2022/08/19 09:37:06;;;;;;;35.00;31.10;;;;;;;20.13;91.51;101481.84;5072794;28;20040;-33
2022/08/19 09:39:32;;;;;;;34.33;30.45;;;;;;;20.24;90.69;101492.50;5072769;28;20521;-34
2022/08/19 09:41:57;;;;;;;31.10;27.90;;;;;;;20.32;90.38;101494.69;5072527;28;20036;-35
2022/08/19 09:44:23;;;;;;;35.78;30.95;;;;;;;20.45;90.07;101487.78;5072207;28;20037;-34
2022/08/19 09:46:49;;;;;;;35.67;30.65;;;;;;;20.49;89.48;101493.53;5072789;28;20029;-34
2022/08/19 09:49:16;;;;;;;35.42;30.30;;;;;;;20.57;88.84;101490.22;5073165;28;20021;-35
2022/08/19 09:51:42;;;;;;;36.45;31.65;;;;;;;20.61;88.98;101491.31;5072758;28;20035;-34
2022/08/19 09:54:08;;;;;;;37.10;31.88;;;;;;;20.66;89.59;101495.94;5072876;28;20349;-34
2022/08/19 09:56:34;;;;;;;36.58;32.00;;;;;;;20.76;88.12;101498.63;5072288;28;20043;-34
2022/08/19 09:59:00;;;;;;;37.03;31.15;;;;;;;20.81;87.88;101496.69;5072307;28;20032;-35
2022/08/19 10:01:28;;;;;;;38.60;31.73;;;;;;;20.81;88.07;101495.88;5071339;28;20033;-34
2022/08/19 10:03:56;;;;;;;35.15;31.00;;;;;;;20.94;87.09;101499.91;5072315;28;20036;-34
2022/08/19 10:06:23;;;;;;;34.80;30.05;;;;;;;20.97;87.29;101499.31;5072719;28;20082;-35
2022/08/19 10:08:49;;;;;;;38.70;31.23;;;;;;;20.95;86.17;101479.56;5074199;28;20476;-34
2022/08/19 10:11:15;;;;;;;33.97;29.20;;;;;;;21.10;86.49;101506.94;5076273;28;20032;-34
2022/08/19 10:13:43;;;;;;;35.97;30.45;;;;;;;21.21;86.25;101503.00;5076268;28;20113;-35
2022/08/19 10:16:11;;;;;;;35.35;31.50;;;;;;;21.27;86.70;101496.34;5076005;28;20024;-34
2022/08/19 10:18:39;;;;;;;29.48;26.20;;;;;;;21.46;85.95;101493.75;5076268;28;20020;-34
2022/08/19 10:21:09;;;;;;;36.40;28.98;;;;;;;21.49;84.77;101487.69;5076077;28;20027;-34
2022/08/19 10:23:37;;;;;;;31.75;28.15;;;;;;;21.40;84.43;101496.84;5076509;28;20051;-35
2022/08/19 10:26:05;;;;;;;32.60;27.92;;;;;;;21.30;84.25;101479.31;5076002;28;20032;-35
2022/08/19 10:28:32;;;;;;;32.13;27.88;;;;;;;21.31;84.26;101491.97;5075442;28;20020;-35
2022/08/19 10:30:58;;;;;;;28.55;25.50;;;;;;;21.31;84.11;101483.72;5075670;28;20024;-35
2022/08/19 10:33:24;;;;;;;28.00;23.33;;;;;;;21.31;83.32;101480.94;5075840;28;20121;-34
2022/08/19 10:36:04;;;;;;;28.08;25.08;;;;;;;21.31;84.24;101480.94;5075453;28;20020;-35
2022/08/19 10:38:30;;;;;;;28.90;25.42;;;;;;;21.39;83.81;101486.97;5075502;28;20521;-35
2022/08/19 10:40:56;;;;;;;34.00;28.25;;;;;;;21.29;83.06;101483.16;5075692;28;20086;-34
2022/08/19 10:43:21;;;;;;;30.30;27.10;;;;;;;21.35;84.07;101492.22;5075644;28;20024;-35
2022/08/19 10:45:58;;;;;;;32.03;26.88;;;;;;;21.34;83.99;101491.41;5075485;28;20332;-34
2022/08/19 10:48:23;;;;;;;31.40;28.02;;;;;;;21.36;82.82;101495.78;5076020;28;20114;-34
2022/08/19 10:53:32;;;;;;;31.20;27.92;;;;;;;21.38;83.35;101469.63;5075527;28;20048;-38
2022/08/19 10:58:42;;;;;;;33.45;28.80;;;;;;;21.48;82.49;101476.97;5075639;28;20035;-34
2022/08/19 11:01:08;;;;;;;30.88;27.38;;;;;;;21.52;81.71;101464.25;5075034;28;20103;-35
2022/08/19 11:03:33;;;;;;;30.27;27.23;;;;;;;21.57;82.52;101467.81;5074426;28;20040;-34
2022/08/19 11:06:05;;;;;;;31.55;28.13;;;;;;;21.62;82.46;101469.69;5075758;28;20032;-34
2022/08/19 11:08:32;;;;;;;30.58;27.38;;;;;;;21.49;81.68;101456.59;5073491;28;20433;-34
2022/08/19 11:11:01;;;;;;;29.73;26.58;;;;;;;21.71;81.87;101467.94;5075064;28;20098;-35
2022/08/19 11:13:37;;;;;;;31.92;27.58;;;;;;;21.81;81.53;101472.50;5075323;28;20052;-35
2022/08/19 11:16:14;;;;;;;30.10;26.85;;;;;;;21.93;81.54;101466.63;5074242;28;20086;-34
2022/08/19 11:18:45;;;;;;;30.73;27.42;;;;;;;21.95;80.58;101467.97;5074691;28;20038;-35
2022/08/19 11:21:14;;;;;;;33.00;27.23;;;;;;;22.07;79.71;101462.06;5075500;28;20028;-34
2022/08/19 11:23:40;;;;;;;30.42;27.33;;;;;;;22.12;79.03;101451.00;5075085;28;20031;-34
2022/08/19 11:26:06;;;;;;;27.00;24.20;;;;;;;22.25;78.47;101475.09;5074933;28;20033;-35
2022/08/19 11:28:32;;;;;;;29.15;26.02;;;;;;;22.27;77.51;101470.09;5074510;28;20093;-35
2022/08/19 11:30:57;;;;;;;29.17;25.67;;;;;;;22.36;78.04;101470.28;5072745;28;20473;-34
2022/08/19 11:33:22;;;;;;;28.25;25.20;;;;;;;22.41;77.02;101463.88;5073972;28;20025;-35
2022/08/19 11:35:49;;;;;;;29.30;26.27;;;;;;;22.54;77.23;101465.88;5074304;28;20093;-34
2022/08/19 11:38:14;;;;;;;28.73;24.90;;;;;;;22.64;77.36;101454.72;5074512;28;20020;-35
2022/08/19 11:40:41;;;;;;;23.55;21.02;;;;;;;22.82;74.86;101459.41;5074371;28;20024;-35